Terminal Aerodrome Forecast
Issued by NWS Sioux Falls, SD

Home | Current Version | Previous Version | Graphics & Text | Print | Product List | Glossary On
Versions: 1 2 3 4 5 6 7 8 9 10 11 12 13 14 15 16
000
FTUS43 KFSD 290528
TAFFSD
TAF
KFSD 290528Z 2906/3006 10005KT P6SM BKN110
     FM291300 08007KT P6SM OVC130
     FM291800 09011KT P6SM OVC080
     FM292300 09011KT P6SM OVC030
     FM300200 09010KT P6SM OVC015=

USA.gov is the U.S. government's official web portal to all federal, state and local government web resources and services.